Wednesday, August 31, 2016
04:22 UTC
  |  Log In   |  Register Free
Airport Search:

Faribault Municipal Airport
(KFBL)

Faribault Municipal Airport Diagram
No Airport Diagram Available

FAA data valid effective Jul 21 2016 - Sep 15 2016 (unless otherwise noted).

 
 
 
 
 
 
 
 
 
 
 
 
 
 
Current Aviation Weather for KFBL

Weather Summary


The most recent METAR observation for FBL was updated at: 12:54 UTC
METAR for FBL is not available. Closest METAR is for
METAR

METAR KFBL 310414Z 00000KT 10SM CLR 14/14 A3018 RMK AO2 PWINO

METAR KFBL 310354Z 00000KT 10SM CLR 15/14 A3018 RMK AO2 PWINO

METAR KFBL 310334Z 00000KT 10SM CLR 16/14 A3017 RMK AO2 PWINO

METAR KFBL 310314Z 00000KT 10SM CLR 16/14 A3018 RMK AO2 PWINO

METAR KFBL 310254Z 00000KT 10SM CLR 17/14 A3018 RMK AO2 PWINO

METAR KFBL 310234Z 32003KT 10SM CLR 17/14 A3018 RMK AO2 PWINO

METAR KFBL 310214Z 31003KT 10SM CLR 18/14 A3019 RMK AO2 PWINO

METAR KFBL 310154Z 31003KT 10SM CLR 18/15 A3018 RMK AO2 PWINO

METAR KFBL 310134Z 32003KT 10SM CLR 18/16 A3017 RMK AO2 PWINO

METAR KACQ 310414Z 34003KT 10SM CLR 15/13 A3019 RMK AO2

METAR KFCM 310353Z 35005KT 10SM CLR 19/14 A3016 RMK AO2 SLP210 T01890139

METAR KLVN 310412Z 28003KT 10SM CLR 15/14 A3017 RMK AO2

TAF for FBL is not available.
TAF

KMSP - TAF AMD KMSP 310250Z 3103/0106 35005KT P6SM SKC =

GlobalAir.com is loading additional information.
 Current Weather at FBL
63.0 F° (17.0 C°)

North winds at 0.0 mph
Pressure:
30.18 in
Humidity:
83%
Wind:
North at 0.0 mph
Dew Point:
57.2 F° (14.0 C°)
Visibility:
10.00 mi
FBL NOAA Radar




Find All Airport Services Find A Hotel Find A Rental Car Find A Golf Course Find A Restaurant $100 Hamburger



Airport Weather Forecast for KFBL

Translated METAR for KFBL (0414 UTC)
METAR:
KFBL 310414Z AUTO Faribault Municipal, Faribault, MN (KFBL). Aug 31, 0414Z, Automated. Wind is Calm, 10 statute miles visibility, Clear Skies, Temperature 14°C, Dewpoint 14°C, Altimeter is 30.18. Remarks: automated station with precipitation discriminator PWINO
Conditions at:
KFBL (Faribault Muni, MN) observed 0414 UTC 31 August 2016
Temperature:
63.0 F° (17.0 C°)
Dewpoint:
not reported - refer to area weather report
Pressure:
30.18 Hg
Winds:
not reported
Visibility:
10.00
Ceiling:
at least 12,000 feet AGL
Clouds:
not reported - refer to area weather report
Remarks:
site is un-manned
precipitation identifier sensor not available

Translated TAF for TAF for FBL is not available. Refer to local area forecast.
FBO's on the Field
FBO Company Facility Photos Services Transportation Aviation Fuel Prices: Prices include tax
Catering Weather Repair Courtesy Rental Type 100LL JetA JetA+ MOGAS 8087
 
Quality Aviation

This FBO has not yet been rated
FS:Independent
Last Updated: Jul-22
Login to update fuel prices
SS:
Contact Quality AviationMore FBO Information
 
Add another FBO Facility Photos Catering Weather Repair Courtesy Rental Type 100LL JetA JetA+ MOGAS 8087
Services Transportation Aviation Fuel Prices: Prices include tax


model-print
model-print
model-print
model-print